Dades meteomassalio
Diari Summary for Marc 13, 2017 Units:  English    Metric   Both
« Previous Day
Next Day »
Diari Semanal Mensual Anual Personalitzat
  Maxima: Minima: Mijana:
Temperatura: TemperatureC °F 6.9 °F 10.1 °F
Rosada: DewpointC °F 4.9 °F 7.3 °F
Humitat: Humidity % 66 % 83 %
Velocitat del vent: WindSpeedKMH mph 0.0 mph 9.9 mph
Racha vent: WindSpeedGustKMH mph - -
Vent:- - WSW
Pressio: PressurehPa in 1016.5 in -
Pluja: 12.7 in    
Historical Graphs
 
 
Tabular Data for Marc 13, 2017
Time Temperature Dew Point Pressure Wind Wind Speed Wind Gust Humidity Rainfall Rate (Hourly) solar Conditions
TemperatureC °F DewpointC °F PressurehPa in Calm     Humidity % HourlyPrecipMM in SolarRadiationWatts/m^2 W/m2 Conditions
00:04 8.7 °F 5.1 °F 1016.8 in NW 31.5 mph 31.5 mph 78 % 0.0 in 0.0 W/m2 RA
00:09 8.5 °F 4.9 °F 1016.8 in WNW 33.8 mph 33.8 mph 78 % 0.0 in 0.0 W/m2 CLR
00:14 8.4 °F 4.9 °F 1016.8 in WNW 31.5 mph 31.5 mph 79 % 0.0 in 0.0 W/m2 CLR
00:19 8.3 °F 5.2 °F 1016.8 in WNW 27.8 mph 27.8 mph 81 % 0.3 in 0.0 W/m2 RA
00:24 8.3 °F 5.2 °F 1016.8 in WNW 31.5 mph 31.5 mph 81 % 0.3 in 0.0 W/m2 CLR
00:29 8.3 °F 5.2 °F 1016.8 in WNW 25.7 mph 25.7 mph 81 % 0.3 in 0.0 W/m2 CLR
00:34 8.2 °F 5.2 °F 1017.2 in NW 29.0 mph 29.0 mph 81 % 0.5 in 0.0 W/m2 RA
00:39 8.2 °F 5.1 °F 1016.8 in WNW 40.2 mph 40.2 mph 81 % 0.5 in 0.0 W/m2 CLR
00:44 8.1 °F 5.2 °F 1016.8 in NW 31.5 mph 31.5 mph 82 % 0.5 in 0.0 W/m2 CLR
00:49 8.1 °F 5.3 °F 1016.8 in WNW 25.9 mph 25.9 mph 83 % 0.5 in 0.0 W/m2 CLR
00:54 8.0 °F 5.3 °F 1016.8 in WNW 33.3 mph 33.3 mph 83 % 0.3 in 0.0 W/m2 CLR
00:59 7.9 °F 5.2 °F 1016.5 in WNW 37.0 mph 37.0 mph 83 % 0.5 in 0.0 W/m2 RA
01:04 7.8 °F 5.1 °F 1016.8 in NW 31.5 mph 31.5 mph 83 % 0.5 in 0.0 W/m2
01:09 7.8 °F 5.1 °F 1016.8 in WNW 29.6 mph 29.6 mph 83 % 0.5 in 0.0 W/m2 CLR
01:14 7.8 °F 5.1 °F 1017.2 in NW 25.9 mph 25.9 mph 83 % 0.5 in 0.0 W/m2 CLR
01:19 7.8 °F 5.1 °F 1017.2 in NW 29.6 mph 29.6 mph 83 % 0.5 in 0.0 W/m2 CLR
01:24 7.8 °F 5.1 °F 1017.2 in NW 22.5 mph 22.5 mph 83 % 0.5 in 0.0 W/m2 CLR
01:29 7.9 °F 5.2 °F 1017.2 in WNW 25.9 mph 25.9 mph 83 % 0.5 in 0.0 W/m2 CLR
01:34 7.9 °F 5.2 °F 1017.5 in NW 29.6 mph 29.6 mph 83 % 0.3 in 0.0 W/m2 CLR
01:39 7.8 °F 5.3 °F 1017.2 in West 27.8 mph 27.8 mph 84 % 0.3 in 0.0 W/m2 CLR
01:44 7.8 °F 5.3 °F 1017.2 in NNW 25.7 mph 25.7 mph 84 % 0.3 in 0.0 W/m2 CLR
01:49 7.8 °F 5.2 °F 1017.2 in WNW 20.4 mph 20.4 mph 84 % 0.3 in 0.0 W/m2 CLR
01:54 7.8 °F 5.4 °F 1017.2 in NW 29.0 mph 29.0 mph 85 % 0.3 in 0.0 W/m2 CLR
01:59 7.7 °F 5.3 °F 1017.2 in WNW 29.6 mph 29.6 mph 85 % 0.0 in 0.0 W/m2 CLR
02:04 7.6 °F 5.2 °F 1017.2 in WNW 33.3 mph 33.3 mph 85 % 0.0 in 0.0 W/m2 CLR
02:09 7.6 °F 5.4 °F 1017.2 in WNW 29.6 mph 29.6 mph 86 % 0.0 in 0.0 W/m2 CLR
02:14 7.4 °F 5.3 °F 1017.2 in WNW 35.2 mph 35.2 mph 86 % 0.0 in 0.0 W/m2 CLR
02:19 7.3 °F 5.3 °F 1017.2 in NNW 20.4 mph 20.4 mph 87 % 0.3 in 0.0 W/m2 RA
02:25 7.3 °F 5.4 °F 1017.2 in NNW 25.9 mph 25.9 mph 88 % 0.3 in 0.0 W/m2 CLR
02:30 7.2 °F 5.4 °F 1017.5 in WNW 33.3 mph 33.3 mph 88 % 0.5 in 0.0 W/m2 RA
02:35 7.2 °F 5.3 °F 1017.5 in WNW 20.4 mph 20.4 mph 88 % 0.8 in 0.0 W/m2 RA
02:40 7.1 °F 5.4 °F 1017.5 in NW 31.5 mph 31.5 mph 89 % 0.8 in 0.0 W/m2
02:45 7.1 °F 5.4 °F 1017.5 in NW 25.9 mph 25.9 mph 89 % 1.0 in 0.0 W/m2 RA
02:50 7.1 °F 5.4 °F 1017.5 in WNW 18.5 mph 18.5 mph 89 % 1.0 in 0.0 W/m2 CLR
02:55 7.1 °F 5.4 °F 1017.2 in NW 27.4 mph 27.4 mph 89 % 1.3 in 0.0 W/m2 RA
03:00 7.1 °F 5.4 °F 1017.2 in WNW 24.1 mph 24.1 mph 89 % 1.3 in 0.0 W/m2 CLR
03:05 7.0 °F 5.3 °F 1017.2 in NW 22.5 mph 22.5 mph 89 % 1.5 in 0.0 W/m2 RA
03:10 7.0 °F 5.4 °F 1017.2 in WNW 25.9 mph 25.9 mph 90 % 1.5 in 0.0 W/m2
03:15 7.0 °F 5.4 °F 1017.2 in NNW 33.3 mph 33.3 mph 90 % 1.5 in 0.0 W/m2
03:20 7.0 °F 5.4 °F 1017.2 in WNW 30.6 mph 30.6 mph 90 % 1.5 in 0.0 W/m2 RA
03:25 7.0 °F 5.4 °F 1017.2 in NW 31.5 mph 31.5 mph 90 % 1.8 in 0.0 W/m2 RA
03:30 7.1 °F 5.4 °F 1017.2 in NW 27.8 mph 27.8 mph 89 % 1.5 in 0.0 W/m2
03:35 7.0 °F 5.3 °F 1017.2 in WNW 25.9 mph 25.9 mph 89 % 1.3 in 0.0 W/m2 CLR
03:40 7.1 °F 5.4 °F 1017.2 in NW 25.7 mph 25.7 mph 89 % 1.3 in 0.0 W/m2 CLR
03:46 7.0 °F 5.4 °F 1017.2 in NW 20.4 mph 20.4 mph 90 % 1.3 in 0.0 W/m2 RA
03:51 7.0 °F 5.4 °F 1017.2 in NW 18.5 mph 18.5 mph 90 % 1.0 in 0.0 W/m2 CLR
03:56 7.0 °F 5.4 °F 1017.5 in NNW 18.5 mph 18.5 mph 90 % 1.3 in 0.0 W/m2 RA
04:01 7.0 °F 5.4 °F 1017.5 in West 14.8 mph 14.8 mph 90 % 1.5 in 0.0 W/m2 RA
04:06 7.0 °F 5.4 °F 1017.8 in SW 11.1 mph 11.1 mph 90 % 1.5 in 0.0 W/m2 RA
04:11 7.0 °F 5.4 °F 1017.8 in Calm     90 % 1.5 in 0.0 W/m2 RA
04:16 7.1 °F 5.5 °F 1017.8 in Calm     90 % 1.8 in 0.0 W/m2 RA
04:21 7.0 °F 5.6 °F 1017.8 in Calm     91 % 2.3 in 0.0 W/m2 RA
04:26 7.0 °F 5.6 °F 1017.8 in Calm     91 % 2.5 in 0.0 W/m2 RA
04:31 7.0 °F 5.6 °F 1017.8 in Calm     91 % 3.0 in 0.0 W/m2 RA
04:36 6.9 °F 5.6 °F 1017.8 in Calm     91 % 3.8 in 0.0 W/m2 RA
04:41 6.9 °F 5.6 °F 1017.5 in WNW 7.4 mph 7.4 mph 91 % 4.1 in 0.0 W/m2 RA
04:46 6.9 °F 5.6 °F 1017.5 in West 18.5 mph 18.5 mph 91 % 4.3 in 0.0 W/m2 RA
04:51 6.9 °F 5.6 °F 1017.5 in West 9.3 mph 9.3 mph 91 % 4.3 in 0.0 W/m2
04:56 7.0 °F 5.8 °F 1017.8 in West 14.8 mph 14.8 mph 92 % 4.3 in 0.0 W/m2 RA
05:01 7.0 °F 5.6 °F 1017.8 in WNW 14.8 mph 14.8 mph 91 % 4.3 in 0.0 W/m2 RA
05:06 7.0 °F 5.6 °F 1017.8 in Calm     91 % 4.3 in 0.0 W/m2 RA
05:11 7.0 °F 5.6 °F 1018.2 in WSW 5.6 mph   91 % 3.8 in 0.0 W/m2 CLR
05:16 7.0 °F 5.8 °F 1018.2 in Calm     92 % 3.8 in 0.0 W/m2 RA
05:21 7.0 °F 5.8 °F 1018.5 in Calm     92 % 4.1 in 0.0 W/m2 RA
05:31 7.0 °F 5.8 °F 1018.5 in Calm     92 % 3.8 in 0.0 W/m2 RA
05:36 7.0 °F 5.8 °F 1018.5 in Calm     92 % 3.6 in 0.0 W/m2 RA
05:41 6.9 °F 5.7 °F 1018.8 in Calm     92 % 4.1 in 0.0 W/m2 RA
05:46 6.9 °F 5.7 °F 1018.8 in Calm     92 % 4.3 in 0.0 W/m2 RA
05:51 6.9 °F 5.7 °F 1018.5 in West 6.4 mph 6.4 mph 92 % 4.8 in 0.0 W/m2 RA
05:56 6.9 °F 5.7 °F 1018.5 in West 11.3 mph 11.3 mph 92 % 5.1 in 0.0 W/m2 RA
06:01 6.9 °F 5.7 °F 1018.5 in West 13.0 mph 13.0 mph 92 % 5.1 in 0.0 W/m2 RA
06:06 6.9 °F 5.7 °F 1018.5 in West 14.8 mph 14.8 mph 92 % 5.1 in 0.0 W/m2 RA
06:11 6.9 °F 5.7 °F 1018.5 in West 18.5 mph 18.5 mph 92 % 5.1 in 0.0 W/m2 CLR
06:16 7.0 °F 5.8 °F 1018.5 in West 16.7 mph 16.7 mph 92 % 4.6 in 0.0 W/m2 CLR
06:21 7.1 °F 5.8 °F 1018.5 in West 18.5 mph 18.5 mph 92 % 4.1 in 0.0 W/m2 CLR
06:26 7.1 °F 5.8 °F 1018.5 in West 18.5 mph 18.5 mph 92 % 3.6 in 0.0 W/m2 CLR
06:31 7.1 °F 5.8 °F 1018.5 in WNW 20.4 mph 20.4 mph 92 % 3.3 in 0.0 W/m2 CLR
06:36 7.1 °F 5.8 °F 1018.8 in WNW 16.7 mph 16.7 mph 92 % 2.5 in 0.0 W/m2 CLR
06:41 7.1 °F 5.8 °F 1018.8 in WNW 18.5 mph 18.5 mph 92 % 2.0 in 0.0 W/m2 CLR
06:46 7.1 °F 5.8 °F 1018.8 in WNW 18.5 mph 18.5 mph 92 % 1.3 in 0.0 W/m2 CLR
06:51 7.1 °F 5.8 °F 1018.8 in NW 20.4 mph 20.4 mph 92 % 0.8 in 0.0 W/m2 CLR
06:56 7.1 °F 5.8 °F 1018.8 in WNW 20.4 mph 20.4 mph 92 % 0.5 in 0.0 W/m2 CLR
07:01 7.1 °F 5.9 °F 1019.2 in WNW 20.4 mph 20.4 mph 92 % 0.3 in 0.0 W/m2 CLR
07:06 7.1 °F 5.9 °F 1019.2 in WNW 22.2 mph 22.2 mph 92 % 0.0 in 0.0 W/m2 OVC
07:11 7.2 °F 5.9 °F 1019.2 in West 18.5 mph 18.5 mph 92 % 0.0 in 0.0 W/m2 OVC
07:16 7.2 °F 5.9 °F 1019.2 in West 14.5 mph 14.5 mph 92 % 0.0 in 0.0 W/m2 OVC
07:21 7.2 °F 5.9 °F 1019.2 in WNW 18.5 mph 18.5 mph 92 % 0.0 in 0.0 W/m2 OVC
07:26 7.2 °F 5.9 °F 1019.5 in WNW 18.5 mph 18.5 mph 92 % 0.0 in 5.0 W/m2 OVC
07:31 7.2 °F 5.9 °F 1019.5 in NW 12.9 mph 12.9 mph 92 % 0.0 in 9.0 W/m2 BKN
07:36 7.2 °F 5.9 °F 1019.5 in West 13.0 mph   92 % 0.0 in 11.0 W/m2 BKN
07:41 7.2 °F 5.9 °F 1019.5 in West 4.8 mph 4.8 mph 92 % 0.0 in 9.0 W/m2 BKN
07:46 7.3 °F 6.1 °F 1019.9 in Calm   1.6 mph 92 % 0.0 in 9.0 W/m2 BKN
07:51 7.3 °F 6.1 °F 1019.9 in WSW 1.9 mph 1.9 mph 92 % 0.0 in 7.0 W/m2 BKN
07:57 7.3 °F 6.1 °F 1019.9 in Calm     92 % 0.0 in 7.0 W/m2 BKN
08:01 7.3 °F 6.1 °F 1020.2 in WSW 5.6 mph 5.6 mph 92 % 0.0 in 7.0 W/m2 BKN
08:06 7.3 °F 6.1 °F 1020.2 in WSW 1.9 mph   92 % 0.0 in 7.0 W/m2 BKN
08:11 7.3 °F 6.1 °F 1020.2 in Calm     92 % 0.0 in 7.0 W/m2 BKN
08:16 7.3 °F 6.1 °F 1020.5 in Calm     92 % 0.0 in 5.0 W/m2 BKN
08:22 7.3 °F 6.1 °F 1020.5 in Calm     92 % 0.0 in 11.0 W/m2 BKN
08:27 7.4 °F 6.2 °F 1020.5 in Calm     92 % 0.0 in 18.0 W/m2 BKN
08:32 7.4 °F 6.2 °F 1020.5 in Calm     92 % 0.0 in 18.0 W/m2 BKN
08:37 7.4 °F 6.2 °F 1020.5 in WSW 5.6 mph 5.6 mph 92 % 0.0 in 28.0 W/m2 BKN
08:42 7.5 °F 6.3 °F 1020.9 in Calm     92 % 0.0 in 32.0 W/m2 BKN
08:47 7.5 °F 6.3 °F 1020.9 in WSW 5.6 mph 5.6 mph 92 % 0.0 in 44.0 W/m2 BKN
08:52 7.5 °F 6.3 °F 1020.9 in SW 5.6 mph 5.6 mph 92 % 0.0 in 62.0 W/m2 BKN
08:57 7.6 °F 6.3 °F 1020.9 in WSW 3.7 mph 3.7 mph 92 % 0.0 in 70.0 W/m2 SCT
09:02 7.6 °F 6.4 °F 1020.9 in Calm   1.3 mph 92 % 0.0 in 74.0 W/m2 FEW
09:07 7.7 °F 6.4 °F 1020.9 in Calm     92 % 0.0 in 100.0 W/m2 FEW
09:12 7.8 °F 6.6 °F 1020.9 in WSW 5.6 mph 5.6 mph 92 % 0.0 in 98.0 W/m2 CLR
09:17 7.9 °F 6.7 °F 1020.9 in SW 5.6 mph 5.6 mph 92 % 0.0 in 109.0 W/m2 CLR
09:22 7.9 °F 6.7 °F 1021.2 in WSW 6.4 mph 6.4 mph 92 % 0.0 in 93.0 W/m2 CLR
09:27 8.0 °F 6.6 °F 1021.2 in WSW 7.4 mph 7.4 mph 91 % 0.0 in 97.0 W/m2 CLR
09:32 8.1 °F 6.7 °F 1021.2 in West 1.9 mph 1.9 mph 91 % 0.0 in 104.0 W/m2 CLR
09:37 8.1 °F 6.7 °F 1021.2 in WSW 5.6 mph 5.6 mph 91 % 0.0 in 123.0 W/m2 CLR
09:42 8.2 °F 6.7 °F 1021.2 in WSW 6.4 mph 6.4 mph 90 % 0.0 in 121.0 W/m2 CLR
09:47 8.3 °F 6.8 °F 1021.2 in West 11.3 mph 11.3 mph 90 % 0.0 in 146.0 W/m2 CLR
09:52 8.4 °F 6.8 °F 1021.2 in West 6.4 mph 6.4 mph 90 % 0.0 in 199.0 W/m2 CLR
09:57 8.5 °F 6.9 °F 1021.6 in West 13.0 mph 13.0 mph 90 % 0.0 in 155.0 W/m2 CLR
10:02 8.6 °F 7.1 °F 1021.6 in West 6.4 mph 6.4 mph 90 % 0.0 in 107.0 W/m2 CLR
10:07 8.6 °F 6.9 °F 1021.6 in WNW 5.6 mph 5.6 mph 89 % 0.0 in 104.0 W/m2 CLR
10:12 8.7 °F 6.9 °F 1021.6 in West 12.9 mph 12.9 mph 89 % 0.0 in 156.0 W/m2 CLR
10:17 8.8 °F 6.9 °F 1021.6 in WSW 11.1 mph 11.1 mph 88 % 0.0 in 229.0 W/m2 CLR
10:22 8.9 °F 7.2 °F 1021.6 in SW 7.4 mph 7.4 mph 89 % 0.0 in 181.0 W/m2 CLR
10:27 9.0 °F 7.1 °F 1021.6 in WSW 5.6 mph 5.6 mph 88 % 0.0 in 137.0 W/m2 CLR
10:32 9.0 °F 7.1 °F 1021.9 in West 7.4 mph 7.4 mph 88 % 0.0 in 100.0 W/m2 CLR
10:37 9.1 °F 7.2 °F 1021.9 in NW 5.6 mph 5.6 mph 88 % 0.0 in 114.0 W/m2 CLR
10:42 9.1 °F 7.1 °F 1021.9 in West 9.3 mph 9.3 mph 87 % 0.0 in 123.0 W/m2 CLR
10:47 9.2 °F 7.1 °F 1021.9 in WNW 8.0 mph 8.0 mph 87 % 0.0 in 146.0 W/m2 CLR
10:52 9.2 °F 7.2 °F 1021.9 in West 9.3 mph 9.3 mph 87 % 0.0 in 123.0 W/m2 CLR
10:57 9.3 °F 7.2 °F 1021.9 in WNW 11.1 mph 11.1 mph 87 % 0.0 in 98.0 W/m2 CLR
11:02 9.3 °F 7.3 °F 1022.2 in NW 9.7 mph 9.7 mph 87 % 0.0 in 77.0 W/m2 CLR
11:07 9.4 °F 7.3 °F 1022.2 in WNW 5.6 mph 5.6 mph 87 % 0.0 in 72.0 W/m2 FEW
11:12 9.4 °F 7.2 °F 1022.2 in WSW 1.9 mph   86 % 0.0 in 67.0 W/m2 FEW
11:17 9.4 °F 7.2 °F 1022.6 in Calm     86 % 0.0 in 67.0 W/m2 FEW
11:22 9.4 °F 7.2 °F 1022.6 in Calm     86 % 0.0 in 74.0 W/m2 FEW
11:27 9.4 °F 7.2 °F 1022.2 in Calm     86 % 0.3 in 120.0 W/m2 RA
11:32 9.4 °F 7.4 °F 1022.2 in West 3.7 mph 3.7 mph 87 % 0.3 in 149.0 W/m2 CLR
11:37 9.5 °F 7.6 °F 1022.2 in WNW 7.4 mph 7.4 mph 88 % 0.3 in 216.0 W/m2 CLR
11:42 9.7 °F 7.8 °F 1022.2 in Calm     88 % 0.3 in 220.0 W/m2 CLR
11:47 9.8 °F 7.9 °F 1022.2 in West 8.0 mph 8.0 mph 88 % 0.3 in 200.0 W/m2 CLR
11:52 9.8 °F 7.8 °F 1022.6 in NW 9.7 mph 9.7 mph 87 % 0.3 in 204.0 W/m2 CLR
11:57 9.9 °F 7.8 °F 1022.6 in NW 13.0 mph 13.0 mph 87 % 0.3 in 260.0 W/m2 CLR
12:02 9.9 °F 7.9 °F 1022.6 in NW 13.0 mph 13.0 mph 87 % 0.3 in 244.0 W/m2 CLR
12:07 10.1 °F 8.2 °F 1022.6 in WNW 14.5 mph 14.5 mph 88 % 0.3 in 323.0 W/m2 CLR
12:12 10.1 °F 7.7 °F 1022.6 in WNW 14.5 mph 14.5 mph 85 % 0.3 in 279.0 W/m2 CLR
12:17 10.1 °F 7.7 °F 1022.6 in WSW 14.5 mph 14.5 mph 85 % 0.3 in 230.0 W/m2 CLR
12:22 10.2 °F 7.8 °F 1022.6 in West 11.1 mph 11.1 mph 85 % 0.3 in 229.0 W/m2 CLR
12:27 10.2 °F 7.8 °F 1022.2 in West 11.3 mph 11.3 mph 85 % 0.0 in 216.0 W/m2 CLR
12:32 10.3 °F 7.9 °F 1022.2 in West 18.5 mph 18.5 mph 85 % 0.0 in 223.0 W/m2 CLR
12:37 10.4 °F 8.0 °F 1022.6 in WSW 9.3 mph 9.3 mph 85 % 0.0 in 211.0 W/m2 CLR
12:42 10.3 °F 7.6 °F 1022.6 in SW 7.4 mph 7.4 mph 83 % 0.0 in 204.0 W/m2 CLR
12:47 10.4 °F 7.8 °F 1022.6 in WSW 7.4 mph 7.4 mph 84 % 0.0 in 171.0 W/m2 CLR
12:52 10.4 °F 7.8 °F 1022.6 in West 1.6 mph 2.3 mph 84 % 0.0 in 172.0 W/m2 CLR
12:57 10.5 °F 7.9 °F 1022.6 in West 7.4 mph 7.4 mph 84 % 0.0 in 183.0 W/m2 CLR
13:02 10.6 °F 7.8 °F 1022.6 in West 5.6 mph 5.6 mph 83 % 0.0 in 163.0 W/m2 CLR
13:07 10.6 °F 7.8 °F 1022.6 in West 11.1 mph 11.1 mph 83 % 0.0 in 149.0 W/m2 CLR
13:12 10.7 °F 7.9 °F 1022.6 in WSW 3.7 mph   83 % 0.0 in 171.0 W/m2 CLR
13:17 10.8 °F 8.2 °F 1022.6 in West 5.6 mph 5.6 mph 84 % 0.0 in 174.0 W/m2 CLR
13:22 10.8 °F 7.9 °F 1022.6 in SW 5.6 mph 5.6 mph 82 % 0.0 in 144.0 W/m2 CLR
13:27 10.9 °F 7.9 °F 1022.6 in SW 3.7 mph 3.7 mph 82 % 0.0 in 144.0 W/m2 CLR
13:32 10.9 °F 8.0 °F 1022.6 in WSW 5.6 mph 5.6 mph 82 % 0.0 in 172.0 W/m2 CLR
13:37 11.1 °F 8.3 °F 1022.6 in WNW 5.6 mph 5.6 mph 83 % 0.0 in 183.0 W/m2 CLR
13:42 11.1 °F 8.2 °F 1022.2 in NW 5.6 mph 5.6 mph 82 % 0.0 in 199.0 W/m2 CLR
13:47 11.3 °F 8.1 °F 1022.2 in Calm     81 % 0.0 in 227.0 W/m2 CLR
13:52 11.3 °F 8.2 °F 1022.2 in SW 7.4 mph 7.4 mph 81 % 0.0 in 250.0 W/m2 CLR
13:57 11.4 °F 8.2 °F 1022.2 in West 1.9 mph   81 % 0.0 in 248.0 W/m2 CLR
14:02 11.6 °F 8.2 °F 1022.2 in SW 3.7 mph 3.7 mph 80 % 0.0 in 288.0 W/m2 CLR
14:07 11.6 °F 8.1 °F 1022.2 in West 7.4 mph 7.4 mph 79 % 0.0 in 327.0 W/m2 CLR
14:12 11.8 °F 8.4 °F 1021.9 in WSW 5.6 mph 5.6 mph 80 % 0.0 in 392.0 W/m2 CLR
14:17 11.9 °F 8.4 °F 1021.9 in West 5.6 mph 5.6 mph 79 % 0.0 in 262.0 W/m2 CLR
14:22 12.0 °F 8.4 °F 1021.9 in WSW 9.3 mph 9.3 mph 79 % 0.0 in 364.0 W/m2 CLR
14:27 12.1 °F 8.4 °F 1021.9 in West 3.2 mph 3.2 mph 78 % 0.0 in 454.0 W/m2 CLR
14:32 12.5 °F 9.2 °F 1021.9 in SW 5.6 mph   80 % 0.0 in 575.0 W/m2 CLR
14:37 12.8 °F 9.1 °F 1021.9 in West 8.0 mph 8.0 mph 78 % 0.0 in 635.0 W/m2 CLR
14:42 13.1 °F 8.9 °F 1021.9 in WSW 5.6 mph 5.6 mph 76 % 0.0 in 540.0 W/m2 CLR
14:47 13.3 °F 8.9 °F 1021.9 in West 7.4 mph 7.4 mph 75 % 0.0 in 673.0 W/m2 CLR
14:52 13.5 °F 8.9 °F 1021.6 in Calm   1.4 mph 74 % 0.0 in 729.0 W/m2 CLR
14:57 13.8 °F 9.3 °F 1021.6 in WSW 8.0 mph 8.0 mph 74 % 0.0 in 506.0 W/m2 CLR
15:02 13.9 °F 9.1 °F 1021.6 in WNW 8.0 mph 8.0 mph 73 % 0.0 in 626.0 W/m2 CLR
15:07 14.2 °F 9.6 °F 1021.6 in Calm     74 % 0.0 in 647.0 W/m2 CLR
15:12 14.6 °F 9.3 °F 1021.6 in WSW 9.3 mph 9.3 mph 71 % 0.0 in 494.0 W/m2 CLR
15:18 14.3 °F 8.9 °F 1021.6 in SW 9.3 mph 9.3 mph 70 % 0.0 in 315.0 W/m2 CLR
15:23 14.1 °F 8.9 °F 1021.6 in WSW 7.4 mph 7.4 mph 71 % 0.0 in 281.0 W/m2 CLR
15:28 14.0 °F 8.6 °F 1021.6 in West 7.4 mph 7.4 mph 70 % 0.0 in 279.0 W/m2 CLR
15:33 13.9 °F 8.8 °F 1021.6 in Calm     71 % 0.0 in 283.0 W/m2 CLR
15:38 14.0 °F 8.8 °F 1021.6 in Calm     71 % 0.0 in 281.0 W/m2 CLR
15:43 14.2 °F 9.0 °F 1021.6 in Calm     71 % 0.0 in 260.0 W/m2 CLR
15:48 14.2 °F 9.1 °F 1021.6 in Calm     71 % 0.0 in 301.0 W/m2 CLR
15:53 14.3 °F 8.7 °F 1021.6 in Calm     69 % 0.0 in 264.0 W/m2 CLR
15:58 14.5 °F 9.3 °F 1021.6 in Calm     71 % 0.0 in 234.0 W/m2 CLR
16:03 14.4 °F 8.6 °F 1021.6 in West 5.6 mph 5.6 mph 68 % 0.0 in 218.0 W/m2 CLR
16:08 14.4 °F 8.6 °F 1021.6 in West 1.9 mph 1.9 mph 68 % 0.0 in 216.0 W/m2 CLR
16:13 14.4 °F 8.8 °F 1021.6 in Calm     69 % 0.0 in 214.0 W/m2 CLR
16:18 14.4 °F 8.4 °F 1021.9 in Calm     67 % 0.0 in 178.0 W/m2 CLR
16:23 14.6 °F 8.7 °F 1021.9 in Calm     68 % 0.0 in 158.0 W/m2 CLR
16:28 14.6 °F 8.5 °F 1021.9 in Calm     67 % 0.0 in 127.0 W/m2 CLR
16:33 14.6 °F 8.7 °F 1021.9 in Calm     68 % 0.0 in 90.0 W/m2 CLR
16:38 14.5 °F 8.2 °F 1021.9 in Calm     66 % 0.0 in 83.0 W/m2 CLR
16:43 14.5 °F 8.7 °F 1021.9 in Calm     68 % 0.0 in 83.0 W/m2 CLR
16:48 14.4 °F 8.4 °F 1021.9 in Calm     67 % 0.0 in 83.0 W/m2 FEW
16:53 14.4 °F 8.4 °F 1021.9 in Calm     67 % 0.0 in 88.0 W/m2 FEW
16:58 14.4 °F 8.6 °F 1021.9 in Calm     68 % 0.0 in 84.0 W/m2 CLR
17:03 14.4 °F 8.6 °F 1022.2 in Calm     68 % 0.0 in 77.0 W/m2 FEW
17:08 14.4 °F 8.8 °F 1022.2 in Calm     69 % 0.0 in 81.0 W/m2 FEW
17:13 14.4 °F 8.3 °F 1022.2 in Calm     67 % 0.0 in 70.0 W/m2 FEW
17:18 14.4 °F 8.6 °F 1022.2 in Calm     68 % 0.0 in 60.0 W/m2 FEW
17:23 14.3 °F 8.5 °F 1022.2 in Calm     68 % 0.0 in 53.0 W/m2 SCT
17:28 14.3 °F 8.5 °F 1022.6 in Calm     68 % 0.0 in 39.0 W/m2 SCT
17:34 14.3 °F 8.4 °F 1022.6 in Calm     68 % 0.0 in 39.0 W/m2 BKN
17:39 14.1 °F 9.5 °F 1022.6 in SSE 11.1 mph 11.1 mph 74 % 0.0 in 26.0 W/m2 BKN
17:44 13.7 °F 9.7 °F 1022.9 in SSE 11.1 mph 11.1 mph 77 % 0.0 in 26.0 W/m2 BKN
17:49 13.4 °F 9.7 °F 1022.9 in SSE 13.0 mph 13.0 mph 78 % 0.0 in 19.0 W/m2 BKN
17:54 13.3 °F 9.5 °F 1022.9 in South 6.4 mph 6.4 mph 78 % 0.0 in 23.0 W/m2 BKN
17:59 13.2 °F 9.4 °F 1023.2 in SSE 5.6 mph 5.6 mph 78 % 0.0 in 14.0 W/m2 BKN
18:04 13.1 °F 9.3 °F 1023.2 in SE 14.8 mph 14.8 mph 78 % 0.0 in 9.0 W/m2 BKN
18:09 12.9 °F 9.2 °F 1023.2 in South 14.8 mph 14.8 mph 78 % 0.0 in 9.0 W/m2 BKN
18:14 12.9 °F 9.2 °F 1023.6 in SSE 9.3 mph 9.3 mph 78 % 0.0 in 11.0 W/m2 BKN
18:19 12.8 °F 9.1 °F 1023.6 in SSE 14.8 mph 14.8 mph 78 % 0.0 in 12.0 W/m2 BKN
18:24 12.7 °F 9.0 °F 1023.6 in SSW 13.0 mph 13.0 mph 78 % 0.0 in 9.0 W/m2 BKN
18:29 12.7 °F 8.9 °F 1023.6 in SSE 7.4 mph 7.4 mph 78 % 0.0 in 9.0 W/m2 BKN
18:34 12.6 °F 8.9 °F 1023.9 in SSW 14.8 mph 14.8 mph 78 % 0.0 in 7.0 W/m2 BKN
18:39 12.6 °F 8.9 °F 1023.9 in South 11.3 mph 11.3 mph 78 % 0.0 in 5.0 W/m2 OVC
18:44 12.6 °F 8.8 °F 1023.9 in South 11.1 mph 11.1 mph 78 % 0.0 in 0.0 W/m2 OVC
18:49 12.6 °F 8.8 °F 1024.3 in South 13.0 mph 13.0 mph 78 % 0.0 in 0.0 W/m2 OVC
18:54 12.5 °F 8.8 °F 1024.3 in SSE 14.8 mph 14.8 mph 78 % 0.0 in 0.0 W/m2 OVC
18:59 12.6 °F 8.6 °F 1024.3 in South 13.0 mph 13.0 mph 77 % 0.0 in 0.0 W/m2 OVC
19:04 12.5 °F 8.6 °F 1024.3 in South 7.4 mph 7.4 mph 77 % 0.0 in 0.0 W/m2 OVC
19:09 12.4 °F 8.7 °F 1024.3 in South 7.4 mph 7.4 mph 78 % 0.0 in 0.0 W/m2 OVC
19:14 12.4 °F 8.7 °F 1024.6 in SSW 7.4 mph 7.4 mph 78 % 0.0 in 0.0 W/m2 CLR
19:19 12.4 °F 8.7 °F 1024.6 in SW 9.3 mph 9.3 mph 78 % 0.0 in 0.0 W/m2 CLR
19:24 12.4 °F 8.7 °F 1024.6 in SSW 5.6 mph   78 % 0.0 in 0.0 W/m2 CLR
19:29 12.3 °F 8.6 °F 1024.9 in Calm     78 % 0.0 in 0.0 W/m2 CLR
19:34 12.3 °F 8.7 °F 1024.9 in SSW 5.6 mph 5.6 mph 79 % 0.0 in 0.0 W/m2 CLR
19:39 12.3 °F 8.6 °F 1024.9 in SSW 8.0 mph 8.0 mph 78 % 0.0 in 0.0 W/m2 CLR
19:44 12.3 °F 8.6 °F 1024.9 in SW 5.6 mph 5.6 mph 78 % 0.0 in 0.0 W/m2 CLR
19:49 12.3 °F 8.7 °F 1025.3 in SW 3.7 mph 3.7 mph 79 % 0.0 in 0.0 W/m2 CLR
19:54 12.3 °F 8.7 °F 1025.3 in Calm     79 % 0.0 in 0.0 W/m2 CLR
19:59 12.3 °F 8.7 °F 1025.3 in SW 3.2 mph 3.2 mph 79 % 0.0 in 0.0 W/m2 CLR
20:04 12.3 °F 8.6 °F 1025.6 in SSW 3.7 mph   78 % 0.0 in 0.0 W/m2 CLR
20:09 12.3 °F 8.6 °F 1025.6 in SW 5.6 mph 5.6 mph 78 % 0.0 in 0.0 W/m2 CLR
20:14 12.4 °F 8.7 °F 1025.6 in SSW 6.4 mph 6.4 mph 78 % 0.0 in 0.0 W/m2 CLR
20:19 12.4 °F 8.5 °F 1026.0 in SSW 9.3 mph 9.3 mph 77 % 0.0 in 0.0 W/m2 CLR
20:24 12.5 °F 8.6 °F 1026.0 in SW 13.0 mph 13.0 mph 77 % 0.0 in 0.0 W/m2 CLR
20:29 12.5 °F 8.6 °F 1026.0 in SSW 13.0 mph 13.0 mph 77 % 0.0 in 0.0 W/m2 CLR
20:34 12.5 °F 8.6 °F 1026.0 in SW 7.4 mph 7.4 mph 77 % 0.0 in 0.0 W/m2 CLR
20:39 12.5 °F 8.8 °F 1026.3 in SW 9.7 mph 9.7 mph 78 % 0.0 in 0.0 W/m2 CLR
20:44 12.5 °F 8.8 °F 1026.3 in SW 9.7 mph 9.7 mph 78 % 0.0 in 0.0 W/m2 CLR
20:49 12.5 °F 8.8 °F 1026.3 in SSW 11.1 mph 11.1 mph 78 % 0.0 in 0.0 W/m2 CLR
20:54 12.6 °F 8.8 °F 1026.3 in SW 7.4 mph 7.4 mph 78 % 0.0 in 0.0 W/m2 CLR
20:59 12.5 °F 8.8 °F 1026.6 in Calm     78 % 0.0 in 0.0 W/m2 CLR
21:04 12.4 °F 8.7 °F 1026.6 in South 11.1 mph 11.1 mph 78 % 0.0 in 0.0 W/m2 CLR
21:09 12.4 °F 8.9 °F 1026.6 in SSW 11.1 mph 11.1 mph 79 % 0.0 in 0.0 W/m2 CLR
21:14 12.4 °F 8.9 °F 1027.0 in SSE 9.3 mph 9.3 mph 79 % 0.0 in 0.0 W/m2 CLR
21:19 12.4 °F 9.1 °F 1027.0 in SW 9.3 mph 9.3 mph 80 % 0.0 in 0.0 W/m2 CLR
21:24 12.4 °F 9.3 °F 1027.0 in South 5.6 mph 5.6 mph 81 % 0.0 in 0.0 W/m2 CLR
21:29 12.4 °F 9.2 °F 1027.0 in SSE 5.6 mph 5.6 mph 81 % 0.0 in 0.0 W/m2 CLR
21:34 12.4 °F 9.2 °F 1027.3 in South 5.6 mph 5.6 mph 81 % 0.0 in 0.0 W/m2 CLR
21:39 12.4 °F 9.4 °F 1027.3 in South 11.3 mph 11.3 mph 82 % 0.0 in 0.0 W/m2 CLR
21:44 12.4 °F 9.4 °F 1027.3 in South 5.6 mph 5.6 mph 82 % 0.0 in 0.0 W/m2 CLR
21:49 12.3 °F 9.3 °F 1027.7 in SSE 3.7 mph 3.7 mph 82 % 0.0 in 0.0 W/m2 CLR
21:54 12.4 °F 9.4 °F 1027.7 in SSE 12.9 mph 12.9 mph 82 % 0.0 in 0.0 W/m2 CLR
21:59 12.4 °F 9.4 °F 1027.7 in SE 5.6 mph 5.6 mph 82 % 0.0 in 0.0 W/m2 CLR
22:04 12.4 °F 9.6 °F 1027.7 in South 8.0 mph 8.0 mph 83 % 0.0 in 0.0 W/m2 CLR
22:09 12.4 °F 9.6 °F 1028.0 in Calm     83 % 0.0 in 0.0 W/m2 CLR
22:14 12.4 °F 9.6 °F 1028.0 in Calm     83 % 0.0 in 0.0 W/m2 CLR
22:19 12.3 °F 9.5 °F 1028.0 in Calm     83 % 0.0 in 0.0 W/m2 CLR
22:24 12.3 °F 9.3 °F 1028.0 in SSW 5.6 mph   82 % 0.0 in 0.0 W/m2 CLR
22:29 12.3 °F 9.3 °F 1028.0 in Calm     82 % 0.0 in 0.0 W/m2 CLR
22:34 12.2 °F 9.2 °F 1028.0 in Calm     82 % 0.0 in 0.0 W/m2 CLR
22:39 12.2 °F 9.2 °F 1028.3 in Calm     82 % 0.0 in 0.0 W/m2 CLR
22:44 12.1 °F 9.1 °F 1028.3 in Calm     82 % 0.0 in 0.0 W/m2 CLR
22:49 12.1 °F 9.1 °F 1028.3 in Calm     82 % 0.0 in 0.0 W/m2 CLR
22:54 12.0 °F 9.2 °F 1028.3 in Calm     83 % 0.0 in 0.0 W/m2 CLR
22:59 11.9 °F 9.2 °F 1028.3 in Calm   0.2 mph 83 % 0.0 in 0.0 W/m2 CLR
23:04 11.9 °F 8.9 °F 1028.3 in Calm     82 % 0.0 in 0.0 W/m2 CLR
23:09 11.9 °F 8.9 °F 1028.3 in SSW 8.0 mph 8.0 mph 82 % 0.0 in 0.0 W/m2 CLR
23:14 11.9 °F 8.7 °F 1028.3 in SW 5.6 mph   81 % 0.0 in 0.0 W/m2 CLR
23:20 11.9 °F 8.8 °F 1028.3 in Calm     81 % 0.0 in 0.0 W/m2 CLR
23:25 11.9 °F 8.6 °F 1028.3 in Calm     80 % 0.0 in 0.0 W/m2 CLR
23:30 11.9 °F 8.6 °F 1028.3 in Calm     80 % 0.0 in 0.0 W/m2 CLR
23:35 11.8 °F 8.5 °F 1028.3 in Calm     80 % 0.0 in 0.0 W/m2 CLR
23:40 11.8 °F 8.4 °F 1028.3 in Calm     80 % 0.0 in 0.0 W/m2 CLR
23:45 11.7 °F 8.4 °F 1028.3 in Calm     80 % 0.0 in 0.0 W/m2 CLR
23:50 11.5 °F 8.2 °F 1028.3 in Calm     80 % 0.0 in 0.0 W/m2 CLR
23:55 11.2 °F 8.0 °F 1028.3 in Calm     81 % 0.0 in 0.0 W/m2 CLR
Lo Temps de Massalio
Compliments of Weather Underground - 1.25 mb